Time;durP1;ratioP1;P1;durP2;ratioP2;P2;SDS_P1;SDS_P2;PMS_P1;PMS_P2;Temp;Humidity;BMP_temperature;BMP_pressure;BME280_temperature;BME280_humidity;BME280_pressure;Samples;Min_cycle;Max_cycle;Signal;HPM_P1;HPM_P2
2022/05/02 00:00:28;;;;;;;0.00;0.00;;;;;;;;;;1751594;28;20266;-76
2022/05/02 00:01:20;;;;;;;0.00;0.00;;;;;;;;;;1750997;28;20271;-76
2022/05/02 00:02:11;;;;;;;0.00;0.00;;;;;;;;;;1752856;28;20758;-76
2022/05/02 00:03:03;;;;;;;0.00;0.00;;;;;;;;;;1753344;28;20213;-76
2022/05/02 00:03:54;;;;;;;0.00;0.00;;;;;;;;;;1748333;28;20206;-76
2022/05/02 00:04:47;;;;;;;0.00;0.00;;;;;;;;;;1752524;28;20260;-76
2022/05/02 00:05:39;;;;;;;0.00;0.00;;;;;;;;;;1752169;28;20240;-76
2022/05/02 00:06:32;;;;;;;0.00;0.00;;;;;;;;;;1753499;28;20201;-76
2022/05/02 00:07:23;;;;;;;0.00;0.00;;;;;;;;;;1752631;28;20796;-76
2022/05/02 00:08:15;;;;;;;0.00;0.00;;;;;;;;;;1753010;28;20627;-76
2022/05/02 00:09:07;;;;;;;0.00;0.00;;;;;;;;;;1753248;28;20288;-76
2022/05/02 00:09:59;;;;;;;0.00;0.00;;;;;;;;;;1752983;28;20197;-76
2022/05/02 00:10:50;;;;;;;0.00;0.00;;;;;;;;;;1751519;28;20586;-76
2022/05/02 00:11:42;;;;;;;0.00;0.00;;;;;;;;;;1753729;28;20440;-76
2022/05/02 00:12:34;;;;;;;0.00;0.00;;;;;;;;;;1753800;28;20205;-76
2022/05/02 00:13:26;;;;;;;0.00;0.00;;;;;;;;;;1754672;28;20240;-76
2022/05/02 00:14:17;;;;;;;0.00;0.00;;;;;;;;;;1754503;28;20220;-76
2022/05/02 00:15:09;;;;;;;0.00;0.00;;;;;;;;;;1755104;28;20193;-76
2022/05/02 00:16:01;;;;;;;0.00;0.00;;;;;;;;;;1753027;28;20582;-76
2022/05/02 00:16:53;;;;;;;0.00;0.00;;;;;;;;;;1746794;28;20198;-76
2022/05/02 00:17:56;;;;;;;0.00;0.00;;;;;;;;;;1752908;28;20210;-76
2022/05/02 00:18:48;;;;;;;0.00;0.00;;;;;;;;;;1754357;28;20538;-76
2022/05/02 00:19:40;;;;;;;0.00;0.00;;;;;;;;;;1754845;28;20201;-75
2022/05/02 00:20:33;;;;;;;0.00;0.00;;;;;;;;;;1753293;28;20201;-76
2022/05/02 00:21:25;;;;;;;0.00;0.00;;;;;;;;;;1755049;28;20266;-76
2022/05/02 00:22:17;;;;;;;0.00;0.00;;;;;;;;;;1754700;28;20224;-76
2022/05/02 00:23:09;;;;;;;0.00;0.00;;;;;;;;;;1753793;28;20565;-76
2022/05/02 00:24:01;;;;;;;0.00;0.00;;;;;;;;;;1754144;28;20189;-75
2022/05/02 00:24:53;;;;;;;0.00;0.00;;;;;;;;;;1751949;28;20225;-75
2022/05/02 00:25:45;;;;;;;0.00;0.00;;;;;;;;;;1753730;28;20221;-75
2022/05/02 00:26:36;;;;;;;0.00;0.00;;;;;;;;;;1755016;28;20226;-75
2022/05/02 00:27:28;;;;;;;0.00;0.00;;;;;;;;;;1754263;28;20300;-76
2022/05/02 00:28:19;;;;;;;0.00;0.00;;;;;;;;;;1754849;28;20205;-76
2022/05/02 00:29:12;;;;;;;0.00;0.00;;;;;;;;;;1753308;28;20598;-76
2022/05/02 00:30:03;;;;;;;0.00;0.00;;;;;;;;;;1753143;28;20206;-76
2022/05/02 00:30:56;;;;;;;0.00;0.00;;;;;;;;;;1753028;28;20226;-77
2022/05/02 00:31:47;;;;;;;0.00;0.00;;;;;;;;;;1754978;28;20201;-78
2022/05/02 00:32:40;;;;;;;0.00;0.00;;;;;;;;;;1754294;28;20533;-77
2022/05/02 00:33:31;;;;;;;0.00;0.00;;;;;;;;;;1752283;28;20210;-77
2022/05/02 00:34:23;;;;;;;0.00;0.00;;;;;;;;;;1752999;28;20427;-77
2022/05/02 00:35:15;;;;;;;0.00;0.00;;;;;;;;;;1753705;28;20274;-76
2022/05/02 00:36:07;;;;;;;0.00;0.00;;;;;;;;;;1752956;28;20575;-76
2022/05/02 00:36:59;;;;;;;0.00;0.00;;;;;;;;;;1754471;28;20262;-76
2022/05/02 00:37:52;;;;;;;0.00;0.00;;;;;;;;;;1754308;28;20209;-76
2022/05/02 00:38:43;;;;;;;0.00;0.00;;;;;;;;;;1755102;28;20650;-76
2022/05/02 00:39:35;;;;;;;0.00;0.00;;;;;;;;;;1754092;28;20198;-76
2022/05/02 00:40:27;;;;;;;0.00;0.00;;;;;;;;;;1756465;28;20200;-76
2022/05/02 00:41:19;;;;;;;0.00;0.00;;;;;;;;;;1754209;28;20209;-76
2022/05/02 00:42:11;;;;;;;0.00;0.00;;;;;;;;;;1754141;28;20459;-76
2022/05/02 00:43:03;;;;;;;0.00;0.00;;;;;;;;;;1754182;28;20206;-75
2022/05/02 00:43:55;;;;;;;0.00;0.00;;;;;;;;;;1754152;28;20220;-76
2022/05/02 00:44:47;;;;;;;0.00;0.00;;;;;;;;;;1754748;28;20512;-75
2022/05/02 00:45:39;;;;;;;0.05;0.05;;;;;;;;;;1753514;28;20237;-77
2022/05/02 00:46:30;;;;;;;0.00;0.00;;;;;;;;;;1754506;28;20209;-76
2022/05/02 00:47:22;;;;;;;0.00;0.00;;;;;;;;;;1754081;28;20300;-76
2022/05/02 00:48:14;;;;;;;0.00;0.00;;;;;;;;;;1754668;28;20205;-76
2022/05/02 00:49:05;;;;;;;0.00;0.00;;;;;;;;;;1753636;28;20210;-76
2022/05/02 00:49:57;;;;;;;0.00;0.00;;;;;;;;;;1754236;28;20197;-76
2022/05/02 00:50:48;;;;;;;0.00;0.00;;;;;;;;;;1753129;28;20248;-76
2022/05/02 00:51:41;;;;;;;0.00;0.00;;;;;;;;;;1754915;28;20937;-77
2022/05/02 00:52:33;;;;;;;0.00;0.00;;;;;;;;;;1753905;28;20201;-76
2022/05/02 00:53:25;;;;;;;0.00;0.00;;;;;;;;;;1754944;28;20212;-76
2022/05/02 00:54:17;;;;;;;0.00;0.00;;;;;;;;;;1753973;28;20206;-76
2022/05/02 00:55:10;;;;;;;0.00;0.00;;;;;;;;;;1754419;28;20194;-76
2022/05/02 00:56:02;;;;;;;0.00;0.00;;;;;;;;;;1752552;28;20230;-77
2022/05/02 00:56:55;;;;;;;0.00;0.00;;;;;;;;;;1754729;28;20208;-77
2022/05/02 00:57:46;;;;;;;0.00;0.00;;;;;;;;;;1753982;28;20248;-77
2022/05/02 00:58:38;;;;;;;0.00;0.00;;;;;;;;;;1754871;28;20297;-77
2022/05/02 00:59:30;;;;;;;0.00;0.00;;;;;;;;;;1754349;28;20220;-77
2022/05/02 01:00:24;;;;;;;0.10;0.10;;;;;;;;;;1752880;28;20593;-76
2022/05/02 01:01:15;;;;;;;0.00;0.00;;;;;;;;;;1751090;28;20272;-76
2022/05/02 01:02:08;;;;;;;0.00;0.00;;;;;;;;;;1754304;28;20194;-77
2022/05/02 01:03:00;;;;;;;0.00;0.00;;;;;;;;;;1753744;28;20668;-77
2022/05/02 01:03:52;;;;;;;0.00;0.00;;;;;;;;;;1750376;28;20445;-77
2022/05/02 01:04:44;;;;;;;0.00;0.00;;;;;;;;;;1754026;28;20217;-77
2022/05/02 01:07:08;;;;;;;0.00;0.00;;;;;;;;;;1752961;28;21105;-77
2022/05/02 01:08:00;;;;;;;0.00;0.00;;;;;;;;;;1753465;28;20216;-76
2022/05/02 01:08:53;;;;;;;0.00;0.00;;;;;;;;;;1753523;28;20198;-76
2022/05/02 01:09:46;;;;;;;0.00;0.00;;;;;;;;;;1754341;28;20262;-76
2022/05/02 01:10:39;;;;;;;0.00;0.00;;;;;;;;;;1752570;28;20294;-77
2022/05/02 01:11:32;;;;;;;0.00;0.00;;;;;;;;;;1754891;28;20211;-77
2022/05/02 01:12:24;;;;;;;0.00;0.00;;;;;;;;;;1754215;28;20210;-76
2022/05/02 01:13:31;;;;;;;0.00;0.00;;;;;;;;;;1754575;28;20593;-77
2022/05/02 01:14:22;;;;;;;0.00;0.00;;;;;;;;;;1752703;28;20205;-76
2022/05/02 01:15:16;;;;;;;0.00;0.00;;;;;;;;;;1753239;28;20202;-76
2022/05/02 01:16:08;;;;;;;0.00;0.00;;;;;;;;;;1753757;28;20626;-77
2022/05/02 01:17:00;;;;;;;0.00;0.00;;;;;;;;;;1754366;28;20631;-77
2022/05/02 01:17:53;;;;;;;0.00;0.00;;;;;;;;;;1753196;28;20254;-77
2022/05/02 01:18:45;;;;;;;0.00;0.00;;;;;;;;;;1754873;28;20210;-77
2022/05/02 01:19:37;;;;;;;0.00;0.00;;;;;;;;;;1753442;28;20208;-77
2022/05/02 01:20:30;;;;;;;0.00;0.00;;;;;;;;;;1752349;28;20695;-77
2022/05/02 01:21:23;;;;;;;0.00;0.00;;;;;;;;;;1753094;28;20698;-76
2022/05/02 01:22:14;;;;;;;0.00;0.00;;;;;;;;;;1754331;28;20201;-76
2022/05/02 01:23:07;;;;;;;0.00;0.00;;;;;;;;;;1754245;28;20205;-77
2022/05/02 01:23:59;;;;;;;0.00;0.00;;;;;;;;;;1753226;28;20201;-76
2022/05/02 01:24:51;;;;;;;0.00;0.00;;;;;;;;;;1754736;28;20594;-76
2022/05/02 01:25:42;;;;;;;0.00;0.00;;;;;;;;;;1752201;28;20237;-77
2022/05/02 01:26:34;;;;;;;0.00;0.00;;;;;;;;;;1754659;28;20213;-76
2022/05/02 01:27:26;;;;;;;0.00;0.00;;;;;;;;;;1752809;28;20676;-76
2022/05/02 01:28:18;;;;;;;0.00;0.00;;;;;;;;;;1754501;28;20209;-76
2022/05/02 01:29:09;;;;;;;0.00;0.00;;;;;;;;;;1753857;28;20582;-75
2022/05/02 01:30:01;;;;;;;0.00;0.00;;;;;;;;;;1753953;28;20260;-75
2022/05/02 01:30:52;;;;;;;0.00;0.00;;;;;;;;;;1751628;28;20663;-75
2022/05/02 01:31:45;;;;;;;0.00;0.00;;;;;;;;;;1754401;28;20201;-75
2022/05/02 01:32:36;;;;;;;0.00;0.00;;;;;;;;;;1753797;28;20210;-76
2022/05/02 01:33:28;;;;;;;0.00;0.00;;;;;;;;;;1751540;28;20241;-76
2022/05/02 01:34:19;;;;;;;0.00;0.00;;;;;;;;;;1751683;28;20205;-76
2022/05/02 01:35:12;;;;;;;0.00;0.00;;;;;;;;;;1754423;28;20280;-76
2022/05/02 01:36:05;;;;;;;0.00;0.00;;;;;;;;;;1752156;28;20248;-76
2022/05/02 01:36:57;;;;;;;0.00;0.00;;;;;;;;;;1754421;28;20205;-76
2022/05/02 01:37:48;;;;;;;0.00;0.00;;;;;;;;;;1753277;28;20627;-76
2022/05/02 01:38:41;;;;;;;0.00;0.00;;;;;;;;;;1754684;28;20220;-76
2022/05/02 01:39:32;;;;;;;0.00;0.00;;;;;;;;;;1753311;28;20202;-76
2022/05/02 01:40:25;;;;;;;0.00;0.00;;;;;;;;;;1754809;28;20201;-78
2022/05/02 01:41:17;;;;;;;0.00;0.00;;;;;;;;;;1753376;28;20205;-76
2022/05/02 01:42:10;;;;;;;0.00;0.00;;;;;;;;;;1754045;28;20194;-76
2022/05/02 01:43:01;;;;;;;0.00;0.00;;;;;;;;;;1754353;28;20672;-76
2022/05/02 01:43:53;;;;;;;0.00;0.00;;;;;;;;;;1753812;28;20342;-76
2022/05/02 01:44:44;;;;;;;0.00;0.00;;;;;;;;;;1754404;28;20194;-76
2022/05/02 01:45:36;;;;;;;0.00;0.00;;;;;;;;;;1752801;28;20835;-76
2022/05/02 01:46:28;;;;;;;0.00;0.00;;;;;;;;;;1753400;28;20205;-76
2022/05/02 01:47:20;;;;;;;0.00;0.00;;;;;;;;;;1753653;28;20275;-76
2022/05/02 01:48:11;;;;;;;0.10;0.10;;;;;;;;;;1754453;28;20320;-76
2022/05/02 01:49:03;;;;;;;0.00;0.00;;;;;;;;;;1754143;28;20205;-76
2022/05/02 01:49:55;;;;;;;0.00;0.00;;;;;;;;;;1754344;28;20232;-76
2022/05/02 01:50:47;;;;;;;0.00;0.00;;;;;;;;;;1752823;28;20229;-76
2022/05/02 01:51:40;;;;;;;0.00;0.00;;;;;;;;;;1754543;28;20206;-77
2022/05/02 01:52:32;;;;;;;0.00;0.00;;;;;;;;;;1752615;28;20213;-76
2022/05/02 01:53:23;;;;;;;0.00;0.00;;;;;;;;;;1753584;28;20210;-76
2022/05/02 01:54:15;;;;;;;0.00;0.00;;;;;;;;;;1753526;28;20198;-75
2022/05/02 01:55:07;;;;;;;0.00;0.00;;;;;;;;;;1754373;28;20281;-76
2022/05/02 01:55:59;;;;;;;0.00;0.00;;;;;;;;;;1752500;28;20252;-76
2022/05/02 01:56:51;;;;;;;0.00;0.00;;;;;;;;;;1753761;28;20198;-76
2022/05/02 01:57:43;;;;;;;0.00;0.00;;;;;;;;;;1753996;28;20210;-76
2022/05/02 01:58:35;;;;;;;0.00;0.00;;;;;;;;;;1753738;28;20296;-76
2022/05/02 01:59:26;;;;;;;0.00;0.00;;;;;;;;;;1753108;28;20220;-76
2022/05/02 02:00:18;;;;;;;0.00;0.00;;;;;;;;;;1752593;28;20343;-76
2022/05/02 02:01:10;;;;;;;0.00;0.00;;;;;;;;;;1751615;28;20217;-76
2022/05/02 02:02:02;;;;;;;0.00;0.00;;;;;;;;;;1754706;28;20232;-76
2022/05/02 02:02:53;;;;;;;0.00;0.00;;;;;;;;;;1753761;28;20654;-76
2022/05/02 02:03:45;;;;;;;0.00;0.00;;;;;;;;;;1750456;28;20216;-76
2022/05/02 02:05:50;;;;;;;0.00;0.00;;;;;;;;;;1749521;28;20246;-75
2022/05/02 02:06:42;;;;;;;0.00;0.00;;;;;;;;;;1753766;28;20255;-76
2022/05/02 02:07:36;;;;;;;0.00;0.00;;;;;;;;;;1753451;28;20250;-75
2022/05/02 02:08:28;;;;;;;0.00;0.00;;;;;;;;;;1754213;28;20269;-76
2022/05/02 02:09:20;;;;;;;0.00;0.00;;;;;;;;;;1752881;28;20627;-75
2022/05/02 02:10:14;;;;;;;0.00;0.00;;;;;;;;;;1753078;28;20209;-77
2022/05/02 02:11:08;;;;;;;0.00;0.00;;;;;;;;;;1753266;28;20234;-75
2022/05/02 02:11:59;;;;;;;0.00;0.00;;;;;;;;;;1753795;28;20205;-75
2022/05/02 02:12:51;;;;;;;0.03;0.03;;;;;;;;;;1753284;28;20233;-75
2022/05/02 02:13:42;;;;;;;0.00;0.00;;;;;;;;;;1754303;28;20692;-76
2022/05/02 02:14:34;;;;;;;0.00;0.00;;;;;;;;;;1753420;28;20209;-75
2022/05/02 02:15:26;;;;;;;0.00;0.00;;;;;;;;;;1752445;28;20201;-75
2022/05/02 02:16:18;;;;;;;0.00;0.00;;;;;;;;;;1753703;28;20193;-76
2022/05/02 02:17:09;;;;;;;0.00;0.00;;;;;;;;;;1753780;28;20546;-76
2022/05/02 02:18:00;;;;;;;0.00;0.00;;;;;;;;;;1752469;28;20193;-77
2022/05/02 02:18:53;;;;;;;0.00;0.00;;;;;;;;;;1753525;28;20634;-77
2022/05/02 02:19:44;;;;;;;0.00;0.00;;;;;;;;;;1753621;28;20216;-77
2022/05/02 02:20:37;;;;;;;0.03;0.03;;;;;;;;;;1744896;28;20234;-76
2022/05/02 02:21:28;;;;;;;0.00;0.00;;;;;;;;;;1746703;28;20194;-77
2022/05/02 02:22:21;;;;;;;0.00;0.00;;;;;;;;;;1750904;28;20300;-77
2022/05/02 02:23:13;;;;;;;0.00;0.00;;;;;;;;;;1754275;28;20201;-76
2022/05/02 02:24:06;;;;;;;0.00;0.00;;;;;;;;;;1753244;28;20207;-77
2022/05/02 02:24:57;;;;;;;0.00;0.00;;;;;;;;;;1753296;28;20201;-76
2022/05/02 02:25:50;;;;;;;0.00;0.00;;;;;;;;;;1751414;28;20304;-77
2022/05/02 02:26:41;;;;;;;0.00;0.00;;;;;;;;;;1753907;28;20850;-76
2022/05/02 02:27:33;;;;;;;0.00;0.00;;;;;;;;;;1753367;28;20538;-76
2022/05/02 02:28:25;;;;;;;0.00;0.00;;;;;;;;;;1754084;28;20228;-77
2022/05/02 02:29:17;;;;;;;0.08;0.08;;;;;;;;;;1753699;28;20337;-76
2022/05/02 02:30:09;;;;;;;0.00;0.00;;;;;;;;;;1753715;28;20631;-77
2022/05/02 02:31:01;;;;;;;0.00;0.00;;;;;;;;;;1750986;28;20706;-77
2022/05/02 02:31:52;;;;;;;0.00;0.00;;;;;;;;;;1753324;28;20477;-77
2022/05/02 02:32:44;;;;;;;0.00;0.00;;;;;;;;;;1753573;28;20601;-76
2022/05/02 02:33:37;;;;;;;0.00;0.00;;;;;;;;;;1751336;28;20206;-76
2022/05/02 02:34:29;;;;;;;0.00;0.00;;;;;;;;;;1752971;28;20212;-76
2022/05/02 02:35:20;;;;;;;0.00;0.00;;;;;;;;;;1752266;28;20209;-77
2022/05/02 02:36:13;;;;;;;0.00;0.00;;;;;;;;;;1754042;28;20223;-77
2022/05/02 02:37:04;;;;;;;0.10;0.10;;;;;;;;;;1753202;28;20198;-76
2022/05/02 02:37:58;;;;;;;0.00;0.00;;;;;;;;;;1752615;28;20205;-76
2022/05/02 02:38:49;;;;;;;0.00;0.00;;;;;;;;;;1753751;28;20201;-77
2022/05/02 02:39:41;;;;;;;0.00;0.00;;;;;;;;;;1754025;28;20661;-77
2022/05/02 02:40:32;;;;;;;0.00;0.00;;;;;;;;;;1755376;28;20296;-77
2022/05/02 02:41:24;;;;;;;0.00;0.00;;;;;;;;;;1754027;28;20267;-76
2022/05/02 02:42:16;;;;;;;0.00;0.00;;;;;;;;;;1753178;28;20278;-76
2022/05/02 02:43:09;;;;;;;0.05;0.05;;;;;;;;;;1754126;28;20204;-77
2022/05/02 02:44:00;;;;;;;0.10;0.10;;;;;;;;;;1752496;28;20205;-76
2022/05/02 02:44:52;;;;;;;0.00;0.00;;;;;;;;;;1753708;28;20198;-76
2022/05/02 02:45:43;;;;;;;0.00;0.00;;;;;;;;;;1752105;28;20244;-77
2022/05/02 02:46:36;;;;;;;0.00;0.00;;;;;;;;;;1753971;28;20604;-77
2022/05/02 02:47:27;;;;;;;0.00;0.00;;;;;;;;;;1753691;28;20237;-77
2022/05/02 02:48:19;;;;;;;0.00;0.00;;;;;;;;;;1753915;28;20205;-76
2022/05/02 02:49:10;;;;;;;0.10;0.10;;;;;;;;;;1753498;28;20214;-76
2022/05/02 02:50:03;;;;;;;0.00;0.00;;;;;;;;;;1753459;28;20202;-76
2022/05/02 02:50:54;;;;;;;0.00;0.00;;;;;;;;;;1751570;28;20297;-76
2022/05/02 02:51:46;;;;;;;0.00;0.00;;;;;;;;;;1754326;28;20242;-76
2022/05/02 02:52:37;;;;;;;0.00;0.00;;;;;;;;;;1753505;28;20209;-76
2022/05/02 02:53:31;;;;;;;0.00;0.00;;;;;;;;;;1753422;28;20292;-76
2022/05/02 02:54:22;;;;;;;0.00;0.00;;;;;;;;;;1753410;28;20230;-76
2022/05/02 02:55:14;;;;;;;0.00;0.00;;;;;;;;;;1746279;28;20194;-76
2022/05/02 02:56:05;;;;;;;0.00;0.00;;;;;;;;;;1752000;28;20718;-76
2022/05/02 02:56:57;;;;;;;0.10;0.10;;;;;;;;;;1752815;28;20309;-76
2022/05/02 02:57:49;;;;;;;0.00;0.00;;;;;;;;;;1753037;28;20206;-76
2022/05/02 02:58:41;;;;;;;0.00;0.00;;;;;;;;;;1754256;28;20289;-76
2022/05/02 02:59:32;;;;;;;0.00;0.00;;;;;;;;;;1752722;28;20250;-76
2022/05/02 03:00:27;;;;;;;0.00;0.00;;;;;;;;;;1752136;28;20254;-77
2022/05/02 03:01:18;;;;;;;0.00;0.00;;;;;;;;;;1750984;28;20226;-77
2022/05/02 03:02:11;;;;;;;0.10;0.10;;;;;;;;;;1754206;28;20197;-77
2022/05/02 03:03:02;;;;;;;0.00;0.00;;;;;;;;;;1753122;28;20354;-76
2022/05/02 03:03:54;;;;;;;0.00;0.00;;;;;;;;;;1749312;28;20197;-76
2022/05/02 03:06:07;;;;;;;0.03;0.03;;;;;;;;;;1730320;28;20227;-76
2022/05/02 03:06:59;;;;;;;0.00;0.00;;;;;;;;;;1732408;28;20266;-77
2022/05/02 03:07:51;;;;;;;0.00;0.00;;;;;;;;;;1731401;28;20557;-77
2022/05/02 03:08:47;;;;;;;0.00;0.00;;;;;;;;;;1739241;28;20635;-77
2022/05/02 03:09:38;;;;;;;0.00;0.00;;;;;;;;;;1744779;28;20206;-77
2022/05/02 03:10:30;;;;;;;0.00;0.00;;;;;;;;;;1744441;28;20289;-77
2022/05/02 03:11:22;;;;;;;0.00;0.00;;;;;;;;;;1750717;28;20220;-77
2022/05/02 03:12:14;;;;;;;0.03;0.03;;;;;;;;;;1753731;28;20236;-77
2022/05/02 03:13:06;;;;;;;0.00;0.00;;;;;;;;;;1753818;28;20508;-77
2022/05/02 03:13:59;;;;;;;0.00;0.00;;;;;;;;;;1753367;28;20775;-77
2022/05/02 03:14:51;;;;;;;0.00;0.00;;;;;;;;;;1754017;28;20221;-77
2022/05/02 03:15:42;;;;;;;0.03;0.03;;;;;;;;;;1750798;28;20877;-76
2022/05/02 03:16:35;;;;;;;0.00;0.00;;;;;;;;;;1753274;28;20239;-76
2022/05/02 03:17:26;;;;;;;0.00;0.00;;;;;;;;;;1752887;28;20209;-76
2022/05/02 03:18:18;;;;;;;0.00;0.00;;;;;;;;;;1752644;28;20201;-76
2022/05/02 03:19:09;;;;;;;0.00;0.00;;;;;;;;;;1753215;28;20209;-76
2022/05/02 03:20:04;;;;;;;0.00;0.00;;;;;;;;;;1753453;28;20645;-76
2022/05/02 03:20:56;;;;;;;0.03;0.03;;;;;;;;;;1750967;28;20241;-76
2022/05/02 03:21:48;;;;;;;0.00;0.00;;;;;;;;;;1753269;28;20197;-76
2022/05/02 03:22:39;;;;;;;0.00;0.00;;;;;;;;;;1752629;28;20206;-76
2022/05/02 03:23:32;;;;;;;0.00;0.00;;;;;;;;;;1753669;28;20240;-76
2022/05/02 03:24:24;;;;;;;0.00;0.00;;;;;;;;;;1752994;28;20259;-76
2022/05/02 03:25:16;;;;;;;0.00;0.00;;;;;;;;;;1752014;28;20209;-76
2022/05/02 03:26:08;;;;;;;0.00;0.00;;;;;;;;;;1753226;28;20236;-76
2022/05/02 03:26:59;;;;;;;0.00;0.00;;;;;;;;;;1753149;28;20197;-77
2022/05/02 03:27:51;;;;;;;0.08;0.08;;;;;;;;;;1753154;28;20207;-76
2022/05/02 03:28:42;;;;;;;0.00;0.00;;;;;;;;;;1752999;28;20209;-76
2022/05/02 03:29:36;;;;;;;0.00;0.00;;;;;;;;;;1752793;28;20197;-76
2022/05/02 03:30:27;;;;;;;0.00;0.00;;;;;;;;;;1752002;28;20299;-76
2022/05/02 03:31:19;;;;;;;0.00;0.00;;;;;;;;;;1753187;28;20601;-76
2022/05/02 03:32:11;;;;;;;0.00;0.00;;;;;;;;;;1752931;28;20222;-76
2022/05/02 03:33:03;;;;;;;0.00;0.00;;;;;;;;;;1753562;28;20208;-77
2022/05/02 03:33:54;;;;;;;0.00;0.00;;;;;;;;;;1749308;28;20210;-76
2022/05/02 03:34:47;;;;;;;0.00;0.00;;;;;;;;;;1753142;28;20253;-76
2022/05/02 03:35:38;;;;;;;0.00;0.00;;;;;;;;;;1751381;28;20259;-77
2022/05/02 03:36:30;;;;;;;0.00;0.00;;;;;;;;;;1753610;28;20198;-77
2022/05/02 03:37:22;;;;;;;0.00;0.00;;;;;;;;;;1753097;28;20216;-76
2022/05/02 03:38:14;;;;;;;0.00;0.00;;;;;;;;;;1753606;28;20288;-76
2022/05/02 03:39:06;;;;;;;0.00;0.00;;;;;;;;;;1753036;28;20251;-76
2022/05/02 03:39:59;;;;;;;0.00;0.00;;;;;;;;;;1753576;28;20198;-77
2022/05/02 03:40:51;;;;;;;0.00;0.00;;;;;;;;;;1751586;28;20595;-77
2022/05/02 03:41:43;;;;;;;0.10;0.10;;;;;;;;;;1752931;28;20202;-76
2022/05/02 03:42:34;;;;;;;0.00;0.00;;;;;;;;;;1752691;28;20247;-76
2022/05/02 03:43:26;;;;;;;0.00;0.00;;;;;;;;;;1753408;28;20338;-76
2022/05/02 03:44:17;;;;;;;0.00;0.00;;;;;;;;;;1752882;28;20237;-76
2022/05/02 03:45:10;;;;;;;0.10;0.10;;;;;;;;;;1753656;28;20500;-76
2022/05/02 03:46:02;;;;;;;0.10;0.10;;;;;;;;;;1751767;28;20819;-76
2022/05/02 03:46:54;;;;;;;0.00;0.00;;;;;;;;;;1754379;28;20202;-77
2022/05/02 03:47:45;;;;;;;0.00;0.00;;;;;;;;;;1754533;28;20205;-76
2022/05/02 03:48:37;;;;;;;0.00;0.00;;;;;;;;;;1755424;28;20642;-76
2022/05/02 03:49:28;;;;;;;0.00;0.00;;;;;;;;;;1754659;28;20231;-76
2022/05/02 03:50:20;;;;;;;0.03;0.03;;;;;;;;;;1754228;28;20270;-76
2022/05/02 03:51:12;;;;;;;0.10;0.10;;;;;;;;;;1755610;28;20193;-76
2022/05/02 03:52:04;;;;;;;0.00;0.00;;;;;;;;;;1756398;28;20208;-76
2022/05/02 03:52:56;;;;;;;0.10;0.10;;;;;;;;;;1755869;28;20252;-77
2022/05/02 03:53:48;;;;;;;0.00;0.00;;;;;;;;;;1755657;28;20193;-77
2022/05/02 03:54:39;;;;;;;0.00;0.00;;;;;;;;;;1754475;28;20201;-77
2022/05/02 03:55:32;;;;;;;0.00;0.00;;;;;;;;;;1754577;28;20619;-77
2022/05/02 03:56:24;;;;;;;0.00;0.00;;;;;;;;;;1756055;28;20205;-77
2022/05/02 03:57:16;;;;;;;0.00;0.00;;;;;;;;;;1755495;28;20354;-76
2022/05/02 03:58:07;;;;;;;0.00;0.00;;;;;;;;;;1755285;28;20633;-76
2022/05/02 03:58:59;;;;;;;0.00;0.00;;;;;;;;;;1755490;28;20197;-76
2022/05/02 03:59:50;;;;;;;0.00;0.00;;;;;;;;;;1755028;28;20639;-76
2022/05/02 04:00:43;;;;;;;0.00;0.00;;;;;;;;;;1753402;28;20243;-76
2022/05/02 04:01:36;;;;;;;0.00;0.00;;;;;;;;;;1753155;28;20209;-76
2022/05/02 04:02:28;;;;;;;0.00;0.00;;;;;;;;;;1755425;28;20616;-76
2022/05/02 04:03:19;;;;;;;0.00;0.00;;;;;;;;;;1755213;28;20205;-76
2022/05/02 04:04:12;;;;;;;0.00;0.00;;;;;;;;;;1752266;28;20288;-76
2022/05/02 04:05:03;;;;;;;0.00;0.00;;;;;;;;;;1756028;28;20542;-76
2022/05/02 04:05:55;;;;;;;0.00;0.00;;;;;;;;;;1753849;28;20243;-76
2022/05/02 04:06:48;;;;;;;0.00;0.00;;;;;;;;;;1751615;28;20590;-76
2022/05/02 04:07:40;;;;;;;0.10;0.10;;;;;;;;;;1752467;28;20207;-76
2022/05/02 04:08:31;;;;;;;0.00;0.00;;;;;;;;;;1756074;28;20205;-76
2022/05/02 04:09:24;;;;;;;0.00;0.00;;;;;;;;;;1755685;28;20205;-76
2022/05/02 04:10:15;;;;;;;0.10;0.10;;;;;;;;;;1747856;28;20202;-76
2022/05/02 04:11:09;;;;;;;0.00;0.00;;;;;;;;;;1754344;28;20236;-76
2022/05/02 04:12:01;;;;;;;0.00;0.00;;;;;;;;;;1756095;28;20201;-77
2022/05/02 04:12:53;;;;;;;0.00;0.00;;;;;;;;;;1755447;28;20201;-77
2022/05/02 04:13:44;;;;;;;0.00;0.00;;;;;;;;;;1755502;28;20201;-76
2022/05/02 04:14:36;;;;;;;0.00;0.00;;;;;;;;;;1754869;28;20213;-76
2022/05/02 04:15:27;;;;;;;0.00;0.00;;;;;;;;;;1754728;28;20205;-76
2022/05/02 04:16:20;;;;;;;0.00;0.00;;;;;;;;;;1754798;28;20602;-77
2022/05/02 04:17:13;;;;;;;0.00;0.00;;;;;;;;;;1755407;28;20216;-77
2022/05/02 04:18:05;;;;;;;0.00;0.00;;;;;;;;;;1754203;28;20193;-76
2022/05/02 04:18:56;;;;;;;0.00;0.00;;;;;;;;;;1755580;28;20299;-76
2022/05/02 04:19:49;;;;;;;0.00;0.00;;;;;;;;;;1754917;28;20531;-76
2022/05/02 04:20:40;;;;;;;0.00;0.00;;;;;;;;;;1753251;28;20237;-76
2022/05/02 04:21:32;;;;;;;0.00;0.00;;;;;;;;;;1755942;28;20197;-76
2022/05/02 04:22:23;;;;;;;0.00;0.00;;;;;;;;;;1754766;28;20210;-76
2022/05/02 04:23:15;;;;;;;0.00;0.00;;;;;;;;;;1755993;28;20197;-76
2022/05/02 04:24:07;;;;;;;0.13;0.13;;;;;;;;;;1755490;28;20209;-76
2022/05/02 04:24:59;;;;;;;0.00;0.00;;;;;;;;;;1755879;28;20627;-76
2022/05/02 04:25:50;;;;;;;0.10;0.10;;;;;;;;;;1753983;28;20233;-76
2022/05/02 04:26:44;;;;;;;0.00;0.00;;;;;;;;;;1754679;28;20659;-76
2022/05/02 04:27:35;;;;;;;0.00;0.00;;;;;;;;;;1755057;28;20205;-76
2022/05/02 04:28:28;;;;;;;0.00;0.00;;;;;;;;;;1755766;28;20213;-76
2022/05/02 04:29:19;;;;;;;0.00;0.00;;;;;;;;;;1755528;28;20206;-76
2022/05/02 04:30:12;;;;;;;0.00;0.00;;;;;;;;;;1755822;28;20190;-76
2022/05/02 04:31:03;;;;;;;0.00;0.00;;;;;;;;;;1753610;28;20612;-76
2022/05/02 04:31:55;;;;;;;0.00;0.00;;;;;;;;;;1756150;28;20199;-76
2022/05/02 04:32:46;;;;;;;0.00;0.00;;;;;;;;;;1753882;28;20202;-76
2022/05/02 04:33:39;;;;;;;0.00;0.00;;;;;;;;;;1752578;28;20253;-76
2022/05/02 04:34:30;;;;;;;0.00;0.00;;;;;;;;;;1754784;28;20288;-76
2022/05/02 04:35:24;;;;;;;0.00;0.00;;;;;;;;;;1754126;28;20563;-76
2022/05/02 04:36:15;;;;;;;0.05;0.05;;;;;;;;;;1755153;28;20194;-76
2022/05/02 04:37:08;;;;;;;0.00;0.00;;;;;;;;;;1755569;28;20198;-76
2022/05/02 04:38:01;;;;;;;0.00;0.00;;;;;;;;;;1755490;28;20197;-76
2022/05/02 04:38:53;;;;;;;0.10;0.10;;;;;;;;;;1754444;28;20197;-76
2022/05/02 04:39:44;;;;;;;0.00;0.00;;;;;;;;;;1754911;28;20553;-76
2022/05/02 04:40:36;;;;;;;0.00;0.00;;;;;;;;;;1756853;28;20228;-76
2022/05/02 04:41:27;;;;;;;0.10;0.10;;;;;;;;;;1754883;28;20205;-76
2022/05/02 04:42:21;;;;;;;0.00;0.00;;;;;;;;;;1755702;28;20288;-76
2022/05/02 04:43:13;;;;;;;0.00;0.00;;;;;;;;;;1755756;28;20198;-76
2022/05/02 04:44:06;;;;;;;0.00;0.00;;;;;;;;;;1754687;28;20197;-77
2022/05/02 04:44:57;;;;;;;0.00;0.00;;;;;;;;;;1755839;28;20202;-76
2022/05/02 04:45:49;;;;;;;0.00;0.00;;;;;;;;;;1753219;28;20681;-76
2022/05/02 04:46:40;;;;;;;0.00;0.00;;;;;;;;;;1755217;28;20559;-76
2022/05/02 04:47:33;;;;;;;0.10;0.10;;;;;;;;;;1754965;28;20213;-76
2022/05/02 04:48:24;;;;;;;0.00;0.00;;;;;;;;;;1755994;28;20520;-76
2022/05/02 04:49:16;;;;;;;0.00;0.00;;;;;;;;;;1755306;28;20204;-76
2022/05/02 04:50:07;;;;;;;0.00;0.00;;;;;;;;;;1755508;28;20528;-76
2022/05/02 04:51:00;;;;;;;0.00;0.00;;;;;;;;;;1753663;28;20228;-76
2022/05/02 04:51:51;;;;;;;0.10;0.10;;;;;;;;;;1755071;28;20198;-76
2022/05/02 04:52:43;;;;;;;0.00;0.00;;;;;;;;;;1755040;28;20219;-76
2022/05/02 04:53:34;;;;;;;0.00;0.00;;;;;;;;;;1748738;28;20206;-76
2022/05/02 04:54:26;;;;;;;0.10;0.10;;;;;;;;;;1754212;28;20194;-76
2022/05/02 04:55:18;;;;;;;0.00;0.00;;;;;;;;;;1753953;28;20205;-76
2022/05/02 04:56:10;;;;;;;0.00;0.00;;;;;;;;;;1755795;28;20193;-76
2022/05/02 04:57:02;;;;;;;0.00;0.00;;;;;;;;;;1755716;28;20217;-76
2022/05/02 04:57:55;;;;;;;0.00;0.00;;;;;;;;;;1755087;28;20204;-76
2022/05/02 04:58:46;;;;;;;0.00;0.00;;;;;;;;;;1754288;28;20208;-76
2022/05/02 04:59:38;;;;;;;0.00;0.00;;;;;;;;;;1754385;28;20662;-76
2022/05/02 05:00:30;;;;;;;0.00;0.00;;;;;;;;;;1753153;28;20210;-76
2022/05/02 05:01:22;;;;;;;0.00;0.00;;;;;;;;;;1752359;28;20198;-76
2022/05/02 05:02:13;;;;;;;0.00;0.00;;;;;;;;;;1754575;28;20216;-76
2022/05/02 05:03:05;;;;;;;0.00;0.00;;;;;;;;;;1754860;28;20204;-76
2022/05/02 05:03:57;;;;;;;0.00;0.00;;;;;;;;;;1750379;28;20206;-76
2022/05/02 05:04:49;;;;;;;0.00;0.00;;;;;;;;;;1753992;28;20225;-77
2022/05/02 05:05:40;;;;;;;0.00;0.00;;;;;;;;;;1752385;28;20241;-76
2022/05/02 05:06:32;;;;;;;0.00;0.00;;;;;;;;;;1754078;28;20539;-76
2022/05/02 05:07:23;;;;;;;0.00;0.00;;;;;;;;;;1753638;28;20210;-76
2022/05/02 05:08:16;;;;;;;0.00;0.00;;;;;;;;;;1752134;28;20213;-76
2022/05/02 05:09:08;;;;;;;0.00;0.00;;;;;;;;;;1753887;28;20210;-76
2022/05/02 05:10:00;;;;;;;0.03;0.03;;;;;;;;;;1754590;28;20208;-76
2022/05/02 05:10:57;;;;;;;0.00;0.00;;;;;;;;;;1752182;28;20242;-76
2022/05/02 05:11:52;;;;;;;0.00;0.00;;;;;;;;;;1753861;28;20190;-76
2022/05/02 05:12:51;;;;;;;0.00;0.00;;;;;;;;;;1753908;28;21263;-76
2022/05/02 05:16:20;;;;;;;0.00;0.00;;;;;;;;;;1755017;28;20194;-76
2022/05/02 05:16:26;;;;;;;0.00;0.00;;;;;;;;;;1752482;28;20606;-76
2022/05/02 05:17:26;;;;;;;0.00;0.00;;;;;;;;;;1752745;28;20197;-76
2022/05/02 05:18:24;;;;;;;0.00;0.00;;;;;;;;;;1753203;28;20197;-76